Time;durP1;ratioP1;P1;durP2;ratioP2;P2;SDS_P1;SDS_P2;PMS_P1;PMS_P2;Temp;Humidity;BMP_temperature;BMP_pressure;BME280_temperature;BME280_humidity;BME280_pressure;Samples;Min_cycle;Max_cycle;Signal;HPM_P1;HPM_P2
2022/07/18 00:02:00;;;;;;;4.33;1.20;;;;;;;9.77;67.46;96560.65;1635275;87;21530;-65
2022/07/18 00:04:27;;;;;;;2.40;1.20;;;;;;;9.80;66.80;96560.64;1635196;87;21038;-65
2022/07/18 00:06:55;;;;;;;2.90;1.20;;;;;;;9.79;66.76;96553.18;1637345;88;21106;-65
2022/07/18 00:09:23;;;;;;;1.10;1.00;;;;;;;9.86;66.57;96558.02;1634948;88;21118;-65
2022/07/18 00:11:52;;;;;;;1.43;0.93;;;;;;;9.79;66.50;96558.90;1635297;87;21023;-65
2022/07/18 00:14:20;;;;;;;3.10;1.10;;;;;;;9.74;67.72;96560.20;1637609;87;21504;-65
2022/07/18 00:16:49;;;;;;;1.07;0.90;;;;;;;9.71;66.64;96559.77;1635243;88;21588;-64
2022/07/18 00:19:17;;;;;;;2.13;1.03;;;;;;;9.67;66.74;96552.73;1635176;87;21050;-65
2022/07/18 00:21:44;;;;;;;1.47;1.00;;;;;;;9.72;66.73;96557.56;1637637;87;21018;-65
2022/07/18 00:24:11;;;;;;;1.93;1.20;;;;;;;9.79;66.27;96549.23;1635306;88;21023;-64
2022/07/18 00:26:38;;;;;;;1.43;1.20;;;;;;;9.83;67.02;96557.58;1635204;88;21576;-65
2022/07/18 00:29:05;;;;;;;2.93;1.40;;;;;;;9.78;66.34;96555.39;1637458;88;21540;-65
2022/07/18 00:31:32;;;;;;;2.37;1.30;;;;;;;9.76;67.04;96554.50;1620435;88;21079;-65
2022/07/18 00:34:00;;;;;;;1.70;1.27;;;;;;;9.77;66.77;96553.61;1635749;86;21041;-65
2022/07/18 00:36:28;;;;;;;2.47;1.43;;;;;;;9.69;66.10;96559.33;1644883;87;21444;-65
2022/07/18 00:38:55;;;;;;;1.87;1.30;;;;;;;9.66;66.00;96551.43;1637897;88;21540;-65
2022/07/18 00:41:22;;;;;;;1.80;1.30;;;;;;;9.57;67.12;96548.33;1637460;88;21031;-64
2022/07/18 00:43:50;;;;;;;1.73;1.13;;;;;;;9.47;66.58;96547.89;1644642;87;21066;-65
2022/07/18 00:46:23;;;;;;;1.60;1.30;;;;;;;9.44;67.68;96558.43;1637747;88;21505;-65
2022/07/18 00:48:50;;;;;;;1.40;1.30;;;;;;;9.47;66.52;96551.39;1637208;88;21115;-65
2022/07/18 00:51:17;;;;;;;1.43;1.30;;;;;;;9.47;66.29;96543.49;1644804;87;21560;-65
2022/07/18 00:53:46;;;;;;;1.60;1.37;;;;;;;9.49;67.41;96550.96;1637787;88;21063;-65
2022/07/18 00:56:18;;;;;;;2.80;1.53;;;;;;;9.46;67.63;96551.41;1637652;88;21034;-64
2022/07/18 00:58:45;;;;;;;1.50;1.40;;;;;;;9.37;67.80;96556.66;1644935;87;21046;-65
2022/07/18 01:03:57;;;;;;;2.17;1.20;;;;;;;9.25;68.89;96562.80;1637795;87;21026;-65
2022/07/18 01:06:24;;;;;;;2.23;1.10;;;;;;;9.17;68.93;96564.11;1644882;87;20998;-65
2022/07/18 01:08:51;;;;;;;1.37;1.27;;;;;;;9.15;68.26;96559.27;1637830;88;21042;-65
2022/07/18 01:11:17;;;;;;;1.40;1.30;;;;;;;9.18;69.00;96561.03;1637590;87;21544;-65
2022/07/18 01:13:44;;;;;;;1.53;1.20;;;;;;;9.09;69.49;96560.55;1645039;87;21010;-65
2022/07/18 01:16:16;;;;;;;2.33;1.43;;;;;;;9.02;68.78;96566.25;1637448;87;21019;-65
2022/07/18 01:18:48;;;;;;;1.47;1.10;;;;;;;8.98;69.39;96566.23;1637625;88;20994;-65
2022/07/18 01:21:15;;;;;;;2.40;1.13;;;;;;;8.95;69.59;96567.55;1644977;87;21497;-65
2022/07/18 01:23:43;;;;;;;1.40;1.30;;;;;;;8.87;70.42;96563.58;1637571;88;21073;-65
2022/07/18 01:26:13;;;;;;;1.40;1.10;;;;;;;8.79;69.68;96561.33;1637912;88;21553;-65
2022/07/18 01:28:40;;;;;;;2.63;1.20;;;;;;;8.81;70.05;96564.84;1644893;87;21122;-65
2022/07/18 01:31:07;;;;;;;1.40;1.17;;;;;;;8.81;70.78;96570.11;1637691;87;21098;-65
2022/07/18 01:33:34;;;;;;;3.37;1.30;;;;;;;8.77;70.41;96571.87;1637801;87;21505;-65
2022/07/18 01:36:04;;;;;;;1.63;1.10;;;;;;;8.78;70.09;96567.03;1644783;87;21154;-65
2022/07/18 01:38:32;;;;;;;1.80;1.00;;;;;;;8.82;69.47;96559.61;1637672;87;21106;-65
2022/07/18 01:40:59;;;;;;;3.77;1.10;;;;;;;8.78;70.30;96565.72;1637667;88;21054;-65
2022/07/18 01:43:27;;;;;;;2.53;0.87;;;;;;;8.79;70.20;96558.70;1644937;87;21065;-65
2022/07/18 01:45:55;;;;;;;1.40;0.87;;;;;;;8.79;69.63;96558.25;1637456;88;21099;-65
2022/07/18 01:48:23;;;;;;;1.73;0.90;;;;;;;8.76;69.61;96558.69;1638179;88;21058;-65
2022/07/18 01:50:50;;;;;;;1.10;1.00;;;;;;;8.71;70.76;96563.93;1644746;87;21117;-65
2022/07/18 01:53:17;;;;;;;2.20;0.97;;;;;;;8.73;70.35;96566.14;1637286;88;21157;-65
2022/07/18 01:55:44;;;;;;;2.30;1.27;;;;;;;8.77;70.24;96562.66;1637668;87;21038;-65
2022/07/18 01:58:11;;;;;;;3.63;1.30;;;;;;;8.86;70.15;96561.35;1644754;87;21533;-65
2022/07/18 02:00:38;;;;;;;12.17;2.30;;;;;;;8.91;69.76;96560.50;1637399;88;21544;-65
2022/07/18 02:03:05;;;;;;;5.40;1.50;;;;;;;8.86;69.46;96555.22;1637430;87;21160;-65
2022/07/18 02:05:32;;;;;;;2.00;1.20;;;;;;;8.72;70.37;96561.76;1644965;87;21007;-65
2022/07/18 02:07:59;;;;;;;1.77;1.20;;;;;;;8.63;70.58;96563.02;1637247;88;21092;-65
2022/07/18 02:10:26;;;;;;;1.37;1.27;;;;;;;8.55;70.54;96563.44;1637926;87;21091;-65
2022/07/18 02:12:53;;;;;;;3.60;1.37;;;;;;;8.49;70.42;96561.63;1644787;87;21572;-65
2022/07/18 02:15:19;;;;;;;1.63;1.53;;;;;;;8.55;70.40;96573.52;1637809;88;21075;-65
2022/07/18 02:17:46;;;;;;;1.43;1.20;;;;;;;8.54;71.01;96571.77;1637823;87;21031;-65
2022/07/18 02:20:14;;;;;;;1.37;1.27;;;;;;;8.42;70.97;96569.94;1645146;87;21042;-65
2022/07/18 02:22:42;;;;;;;1.53;1.20;;;;;;;8.35;71.86;96577.75;1637415;88;21074;-65
2022/07/18 02:25:10;;;;;;;2.07;1.20;;;;;;;8.24;71.83;96575.94;1637586;88;21103;-65
2022/07/18 02:27:37;;;;;;;2.23;1.10;;;;;;;8.28;71.54;96577.27;1645220;87;21129;-65
2022/07/18 02:30:07;;;;;;;1.67;1.20;;;;;;;8.22;72.01;96577.67;1637701;87;21070;-65
2022/07/18 02:32:36;;;;;;;2.80;1.40;;;;;;;8.22;72.46;96569.79;1637860;88;20999;-65
2022/07/18 02:35:05;;;;;;;1.93;1.53;;;;;;;8.27;71.51;96580.34;1644901;87;21046;-65
2022/07/18 02:37:32;;;;;;;1.60;1.20;;;;;;;8.34;70.86;96578.20;1637552;88;21571;-65
2022/07/18 02:39:58;;;;;;;1.63;1.30;;;;;;;8.38;71.19;96591.78;1637822;88;21026;-65
2022/07/18 02:42:26;;;;;;;2.33;1.37;;;;;;;8.32;71.32;96585.19;1644461;87;21185;-65
2022/07/18 02:44:52;;;;;;;1.80;1.40;;;;;;;8.22;71.37;96587.32;1637734;87;21043;-65
2022/07/18 02:47:19;;;;;;;3.70;1.60;;;;;;;8.16;71.95;96584.19;1637709;87;21047;-65
2022/07/18 02:49:46;;;;;;;1.77;1.40;;;;;;;8.09;71.94;96589.39;1644548;87;21116;-65
2022/07/18 02:52:13;;;;;;;1.20;1.10;;;;;;;8.03;72.93;96587.61;1637755;88;21074;-65
2022/07/18 02:54:40;;;;;;;1.83;1.27;;;;;;;7.95;72.89;96589.31;1637804;88;21083;-65
2022/07/18 02:57:07;;;;;;;1.83;1.40;;;;;;;7.94;72.91;96586.25;1645003;87;20999;-65
2022/07/18 02:59:34;;;;;;;1.40;1.27;;;;;;;7.97;73.29;96586.27;1637711;88;21533;-65
2022/07/18 03:02:02;;;;;;;1.63;1.20;;;;;;;7.96;73.32;96585.80;1637774;88;21023;-65
2022/07/18 03:04:29;;;;;;;1.17;1.00;;;;;;;7.93;73.13;96585.79;1644871;87;21073;-65
2022/07/18 03:06:56;;;;;;;1.57;1.00;;;;;;;7.93;73.30;96584.47;1637550;88;21034;-65
2022/07/18 03:09:26;;;;;;;1.43;1.00;;;;;;;7.94;73.17;96590.20;1637353;87;21091;-65
2022/07/18 03:11:51;;;;;;;1.33;1.00;;;;;;;8.05;72.94;96591.58;1645063;87;21038;-65
2022/07/18 03:14:18;;;;;;;2.57;1.03;;;;;;;8.16;72.67;96590.77;1637795;87;21050;-65
2022/07/18 03:16:45;;;;;;;2.10;0.97;;;;;;;8.26;72.75;96582.51;1637595;88;21011;-65
2022/07/18 03:19:12;;;;;;;4.00;1.17;;;;;;;8.35;72.53;96590.46;1644617;87;21141;-65
2022/07/18 03:21:38;;;;;;;3.83;1.37;;;;;;;8.32;72.19;96587.82;1637571;87;21046;-65
2022/07/18 03:24:05;;;;;;;2.93;1.20;;;;;;;8.30;72.58;96586.92;1637311;87;21058;-65
2022/07/18 03:26:33;;;;;;;6.77;1.20;;;;;;;8.41;72.45;96594.91;1644944;87;21039;-65
2022/07/18 03:28:59;;;;;;;1.57;1.10;;;;;;;8.42;71.86;96594.05;1637955;88;21098;-65
2022/07/18 03:31:26;;;;;;;3.50;0.93;;;;;;;8.52;71.62;96593.23;1637654;88;21062;-65
2022/07/18 03:33:53;;;;;;;1.67;1.57;;;;;;;8.66;71.70;96589.34;1645137;87;21026;-65
2022/07/18 03:36:19;;;;;;;3.13;2.13;;;;;;;8.44;72.10;96590.56;1637840;87;21155;-65
2022/07/18 03:38:46;;;;;;;3.80;1.70;;;;;;;8.45;72.00;96598.88;1637667;88;21059;-65
2022/07/18 03:41:13;;;;;;;2.30;1.80;;;;;;;8.44;72.34;96593.19;1644990;87;21062;-65
2022/07/18 03:43:41;;;;;;;2.80;1.83;;;;;;;8.47;72.27;96587.06;1637577;88;21549;-65
2022/07/18 03:46:08;;;;;;;2.43;2.10;;;;;;;8.48;72.77;96586.19;1637668;88;21561;-65
2022/07/18 03:48:35;;;;;;;4.33;2.10;;;;;;;8.60;72.32;96588.88;1645081;87;21010;-65
2022/07/18 03:51:03;;;;;;;3.77;1.70;;;;;;;8.68;72.34;96590.67;1637744;88;21042;-65
2022/07/18 03:53:31;;;;;;;3.43;2.13;;;;;;;8.76;71.68;96592.89;1638053;88;21062;-65
2022/07/18 03:55:59;;;;;;;3.13;2.30;;;;;;;8.84;72.10;96593.80;1644948;87;21053;-65
2022/07/18 03:58:26;;;;;;;4.30;3.47;;;;;;;8.93;71.85;96595.16;1637632;88;21007;-65
2022/07/18 04:00:54;;;;;;;7.37;4.20;;;;;;;8.96;71.44;96595.61;1638002;87;21015;-65
2022/07/18 04:03:21;;;;;;;4.30;3.90;;;;;;;9.06;71.72;96592.14;1645002;87;21022;-65
2022/07/18 04:05:48;;;;;;;4.90;3.70;;;;;;;9.18;70.91;96584.28;1637659;87;21085;-65
2022/07/18 04:08:15;;;;;;;4.23;3.27;;;;;;;9.30;70.81;96592.22;1637828;87;21087;-65
2022/07/18 04:10:43;;;;;;;3.60;2.63;;;;;;;9.38;70.66;96586.97;1616997;87;21022;-65
2022/07/18 04:13:10;;;;;;;2.40;2.03;;;;;;;9.48;70.26;96587.42;1637538;88;21547;-65
2022/07/18 04:15:37;;;;;;;1.90;1.80;;;;;;;9.59;69.58;96594.02;1637926;88;21014;-65
2022/07/18 04:18:06;;;;;;;2.60;1.80;;;;;;;9.70;69.51;96585.70;1645026;87;21074;-65
2022/07/18 04:20:33;;;;;;;1.70;1.50;;;;;;;9.82;69.28;96590.52;1637637;87;21035;-65
2022/07/18 04:23:03;;;;;;;2.53;1.53;;;;;;;9.90;69.02;96589.66;1637510;88;21134;-65
2022/07/18 04:25:39;;;;;;;4.07;1.80;;;;;;;9.99;68.78;96591.40;1645166;87;21010;-65
2022/07/18 04:28:08;;;;;;;2.47;2.00;;;;;;;10.05;68.77;96595.34;1637626;88;21493;-65
2022/07/18 04:30:36;;;;;;;2.53;1.90;;;;;;;10.16;69.51;96592.27;1637777;87;21022;-65
2022/07/18 04:33:05;;;;;;;3.00;2.20;;;;;;;10.29;70.03;96583.06;1644889;87;21050;-65
2022/07/18 04:35:35;;;;;;;3.40;1.63;;;;;;;10.40;69.72;96582.14;1637465;87;21908;-65
2022/07/18 04:38:04;;;;;;;2.07;1.80;;;;;;;10.49;69.48;96581.26;1637668;88;21079;-65
2022/07/18 04:40:31;;;;;;;3.17;1.90;;;;;;;10.63;68.77;96586.48;1644919;87;21010;-65
2022/07/18 04:42:58;;;;;;;3.37;1.70;;;;;;;10.79;68.10;96583.38;1637756;88;21074;-65
2022/07/18 04:45:25;;;;;;;2.87;1.83;;;;;;;10.96;67.74;96581.96;1637905;88;20986;-65
2022/07/18 04:47:54;;;;;;;2.57;2.00;;;;;;;11.07;66.58;96574.02;1644822;87;21109;-65
2022/07/18 04:50:23;;;;;;;3.40;1.77;;;;;;;11.17;66.59;96581.88;1637834;88;21066;-65
2022/07/18 04:52:51;;;;;;;2.33;1.70;;;;;;;11.28;66.95;96580.49;1637533;87;21098;-65
2022/07/18 04:55:21;;;;;;;4.67;2.23;;;;;;;11.42;67.00;96579.11;1644883;87;21030;-65
2022/07/18 04:57:49;;;;;;;3.27;1.77;;;;;;;11.58;66.77;96574.14;1637716;88;21074;-65
2022/07/18 05:00:20;;;;;;;3.23;1.70;;;;;;;11.75;66.48;96566.09;1637802;88;21014;-65
2022/07/18 05:02:50;;;;;;;2.20;2.00;;;;;;;11.89;66.18;96572.62;1644855;87;21109;-65
2022/07/18 05:05:19;;;;;;;4.33;1.63;;;;;;;12.02;66.15;96566.78;1637896;88;21533;-65
2022/07/18 05:07:48;;;;;;;2.40;1.70;;;;;;;12.17;65.64;96568.41;1637513;88;21086;-65
2022/07/18 05:10:18;;;;;;;3.00;1.80;;;;;;;12.35;65.09;96569.58;1644840;87;21034;-65
2022/07/18 05:12:46;;;;;;;4.20;2.00;;;;;;;12.52;64.49;96566.73;1637708;88;21098;-65
2022/07/18 05:15:17;;;;;;;1.60;1.50;;;;;;;12.68;63.85;96568.34;1637692;87;21018;-65
2022/07/18 05:17:44;;;;;;;1.73;1.37;;;;;;;12.84;62.92;96560.22;1610382;89;21055;-65
2022/07/18 05:20:15;;;;;;;2.47;1.50;;;;;;;12.94;61.82;96560.53;1637618;88;21066;-65
2022/07/18 05:22:43;;;;;;;3.27;1.75;;;;;;;13.09;62.34;96564.31;1644526;87;21548;-64
2022/07/18 05:25:11;;;;;;;4.25;1.70;;;;;;;13.24;61.77;96567.66;1637445;88;21115;-65
2022/07/18 05:27:38;;;;;;;3.98;1.82;;;;;;;13.37;61.49;96558.67;1637676;88;21559;-65
2022/07/18 05:30:10;;;;;;;1.65;1.50;;;;;;;13.56;61.47;96559.30;1644654;87;21540;-65
2022/07/18 05:32:38;;;;;;;2.05;1.65;;;;;;;13.73;60.62;96557.69;1637692;88;21058;-65
2022/07/18 05:35:07;;;;;;;7.25;3.60;;;;;;;13.90;60.78;96555.65;1637689;87;21208;-64
2022/07/18 05:37:35;;;;;;;11.75;6.70;;;;;;;14.07;60.24;96552.73;1644589;87;21018;-64
2022/07/18 05:40:08;;;;;;;10.85;6.03;;;;;;;14.17;59.67;96552.12;1637764;88;21497;-65
2022/07/18 05:42:35;;;;;;;12.43;6.92;;;;;;;14.33;57.61;96556.23;1637868;88;21074;-64
2022/07/18 05:45:02;;;;;;;9.15;5.25;;;;;;;14.46;57.46;96551.58;1644820;87;21057;-65
2022/07/18 05:47:29;;;;;;;5.62;3.35;;;;;;;14.61;56.67;96552.66;1637727;88;21046;-65
2022/07/18 05:49:56;;;;;;;2.90;2.00;;;;;;;14.79;57.10;96550.55;1637757;88;21011;-65
2022/07/18 05:52:22;;;;;;;2.50;1.50;;;;;;;15.00;56.88;96547.92;1644676;87;21564;-65
2022/07/18 05:54:49;;;;;;;2.33;1.40;;;;;;;15.15;55.49;96550.27;1637735;88;21059;-65
2022/07/18 05:57:16;;;;;;;3.00;1.35;;;;;;;15.34;55.54;96544.08;1637531;87;21030;-65
2022/07/18 05:59:43;;;;;;;2.67;2.05;;;;;;;15.54;54.90;96543.63;1644925;87;20998;-65
2022/07/18 06:02:09;;;;;;;2.35;1.20;;;;;;;15.72;54.56;96544.59;1637683;88;21083;-65
2022/07/18 06:04:36;;;;;;;1.30;1.20;;;;;;;15.90;53.79;96538.38;1637525;88;21106;-65
2022/07/18 06:07:04;;;;;;;2.40;2.10;;;;;;;16.07;52.35;96535.30;1644766;87;21166;-65
2022/07/18 06:09:31;;;;;;;2.67;1.57;;;;;;;16.21;51.98;96539.83;1637546;88;21485;-65
2022/07/18 06:12:01;;;;;;;3.98;1.30;;;;;;;16.30;50.65;96538.23;1637547;88;21026;-65
2022/07/18 06:14:30;;;;;;;2.05;1.30;;;;;;;16.48;51.59;96529.34;1645122;87;21508;-65
2022/07/18 06:16:57;;;;;;;3.42;1.50;;;;;;;16.70;51.64;96526.98;1637711;87;20971;-65
2022/07/18 06:19:25;;;;;;;1.67;1.30;;;;;;;16.90;49.99;96529.12;1637405;87;21473;-65
2022/07/18 06:21:52;;;;;;;2.50;1.45;;;;;;;17.07;50.38;96523.71;1644858;87;21058;-65
2022/07/18 06:24:18;;;;;;;1.60;1.20;;;;;;;17.29;50.48;96515.95;1637649;88;21142;-65
2022/07/18 06:26:45;;;;;;;3.17;1.20;;;;;;;17.47;47.86;96512.31;1637266;88;21050;-65
2022/07/18 06:29:12;;;;;;;1.10;0.93;;;;;;;17.60;46.79;96520.33;1644955;87;21050;-65
2022/07/18 06:31:39;;;;;;;2.12;1.10;;;;;;;17.79;45.90;96512.63;1637706;88;21054;-65
2022/07/18 06:34:05;;;;;;;0.90;0.90;;;;;;;18.02;46.30;96517.25;1637260;87;21011;-65
2022/07/18 06:36:33;;;;;;;2.75;1.10;;;;;;;18.23;46.05;96509.43;1640660;87;21031;-64
2022/07/18 06:39:00;;;;;;;2.20;0.88;;;;;;;18.50;42.82;96500.45;1635149;88;21023;-65
2022/07/18 06:41:27;;;;;;;1.10;0.85;;;;;;;18.50;42.82;96500.45;1634849;87;21019;-65
2022/07/18 06:43:53;;;;;;;3.10;1.12;;;;;;;18.74;44.89;96511.19;1637872;88;21066;-65
2022/07/18 06:46:20;;;;;;;1.95;0.90;;;;;;;18.93;44.68;96506.95;1635135;88;21026;-65
2022/07/18 06:48:47;;;;;;;1.25;0.85;;;;;;;19.07;43.16;96511.77;1635079;87;21533;-65
2022/07/18 06:51:14;;;;;;;1.22;0.70;;;;;;;19.25;42.88;96506.19;1637506;87;21058;-64
2022/07/18 06:53:40;;;;;;;1.95;0.90;;;;;;;19.41;42.83;96504.67;1634564;88;21097;-65
2022/07/18 06:56:07;;;;;;;1.75;0.90;;;;;;;19.55;41.77;96496.56;1634843;87;21130;-65
2022/07/18 06:58:34;;;;;;;1.75;1.00;;;;;;;19.69;39.98;96501.41;1637862;87;21114;-65
2022/07/18 07:01:01;;;;;;;2.05;0.88;;;;;;;19.82;40.05;96498.64;1634620;88;21062;-65
2022/07/18 07:03:28;;;;;;;2.90;1.15;;;;;;;19.97;39.02;96501.16;1635286;87;21070;-65
2022/07/18 07:05:55;;;;;;;2.95;1.07;;;;;;;20.11;39.16;96501.47;1637519;88;21066;-65
2022/07/18 07:08:21;;;;;;;1.85;0.88;;;;;;;20.29;38.75;96503.84;1634998;88;21062;-65
2022/07/18 07:10:48;;;;;;;2.15;0.80;;;;;;;20.41;37.29;96498.39;1635270;87;21066;-65
2022/07/18 07:13:15;;;;;;;1.00;0.90;;;;;;;20.54;37.62;96502.31;1637646;88;21524;-65
2022/07/18 07:15:42;;;;;;;2.30;1.42;;;;;;;20.63;36.03;96499.72;1635209;88;21043;-65
2022/07/18 07:18:10;;;;;;;1.75;1.10;;;;;;;20.61;33.71;96491.73;1635295;87;21054;-65
2022/07/18 07:20:37;;;;;;;0.80;0.60;;;;;;;20.68;34.14;96498.56;1637783;88;21094;-65
2022/07/18 07:23:07;;;;;;;3.17;1.05;;;;;;;20.81;33.86;96500.70;1620041;89;21149;-65
2022/07/18 07:25:34;;;;;;;2.10;0.80;;;;;;;20.94;35.20;96499.20;1609636;88;21078;-65
2022/07/18 07:28:00;;;;;;;1.65;1.02;;;;;;;21.12;35.71;96486.31;1637810;87;21540;-65
2022/07/18 07:30:27;;;;;;;2.45;1.05;;;;;;;21.34;36.11;96483.51;1620893;88;21059;-65
2022/07/18 07:32:54;;;;;;;1.85;1.00;;;;;;;21.53;35.69;96487.55;1635084;87;21094;-65
2022/07/18 07:35:22;;;;;;;2.67;1.15;;;;;;;21.66;33.37;96478.91;1637782;87;21030;-65
2022/07/18 07:37:54;;;;;;;2.85;0.95;;;;;;;21.60;32.51;96486.80;1639780;87;21042;-65
2022/07/18 07:40:28;;;;;;;2.62;1.10;;;;;;;21.68;33.48;96484.60;1640365;87;21532;-65
2022/07/18 07:42:55;;;;;;;5.65;1.17;;;;;;;21.77;32.90;96484.61;1641746;87;21090;-65
2022/07/18 07:45:21;;;;;;;5.50;1.20;;;;;;;21.90;32.52;96487.56;1638512;87;21049;-65
2022/07/18 07:47:48;;;;;;;3.42;1.20;;;;;;;22.02;32.70;96484.27;1640241;87;21110;-65
2022/07/18 07:50:15;;;;;;;2.27;1.20;;;;;;;22.14;32.48;96481.45;1643068;87;21022;-65
2022/07/18 07:52:41;;;;;;;1.98;1.00;;;;;;;22.27;32.79;96479.91;1639931;87;21063;-65
2022/07/18 07:55:09;;;;;;;4.65;1.00;;;;;;;22.46;33.69;96479.37;1639947;87;21073;-65
2022/07/18 07:57:36;;;;;;;1.00;0.90;;;;;;;22.61;33.43;96487.13;1642780;87;21042;-65
2022/07/18 08:00:09;;;;;;;1.45;0.80;;;;;;;22.64;32.53;96480.23;1640245;87;21043;-65
2022/07/18 08:02:57;;;;;;;1.55;1.02;;;;;;;22.68;32.25;96476.92;1640285;87;21089;-65
2022/07/18 08:05:24;;;;;;;2.70;1.05;;;;;;;22.84;31.81;96484.56;1612514;89;21078;-65
2022/07/18 08:07:51;;;;;;;1.52;0.90;;;;;;;22.92;31.48;96476.56;1640331;87;21038;-65
2022/07/18 08:10:18;;;;;;;1.25;1.10;;;;;;;22.97;30.55;96484.81;1642636;87;21488;-65
2022/07/18 08:12:45;;;;;;;4.00;1.47;;;;;;;22.96;30.61;96472.77;1640070;87;21054;-65
2022/07/18 08:15:13;;;;;;;1.17;0.90;;;;;;;22.99;30.66;96477.53;1640158;87;21018;-65
2022/07/18 08:17:39;;;;;;;1.27;0.90;;;;;;;23.10;30.25;96481.84;1642773;87;21078;-65
2022/07/18 08:20:08;;;;;;;4.08;1.10;;;;;;;23.16;30.97;96477.97;1639920;87;21518;-65
2022/07/18 08:22:35;;;;;;;3.33;1.12;;;;;;;23.27;31.22;96475.55;1640051;87;21516;-65
2022/07/18 08:25:03;;;;;;;4.65;1.10;;;;;;;23.38;30.45;96477.63;1642645;87;21556;-65
2022/07/18 08:27:30;;;;;;;1.95;0.98;;;;;;;23.44;29.60;96478.66;1640014;87;21086;-65
2022/07/18 08:29:57;;;;;;;1.72;1.05;;;;;;;23.49;29.13;96480.62;1640137;87;21066;-65
2022/07/18 08:32:24;;;;;;;3.27;1.45;;;;;;;23.63;29.65;96481.66;1642836;87;21107;-65
2022/07/18 08:34:52;;;;;;;1.40;1.30;;;;;;;23.77;29.27;96478.23;1640203;87;21549;-65
2022/07/18 08:37:19;;;;;;;2.95;1.15;;;;;;;23.84;28.71;96480.94;1639932;86;21098;-65
2022/07/18 08:39:46;;;;;;;2.10;1.05;;;;;;;23.97;28.47;96476.60;1642627;87;21050;-65
2022/07/18 08:42:15;;;;;;;2.20;1.30;;;;;;;24.15;28.04;96472.83;1625776;88;20999;-65
2022/07/18 08:44:41;;;;;;;2.72;1.30;;;;;;;24.23;27.84;96473.72;1640042;87;21086;-65
2022/07/18 08:47:10;;;;;;;2.62;1.27;;;;;;;24.31;27.97;96474.13;1642746;87;21496;-65
2022/07/18 08:49:37;;;;;;;2.77;1.35;;;;;;;24.35;27.85;96476.19;1640106;87;21022;-65
2022/07/18 08:52:05;;;;;;;1.25;1.12;;;;;;;24.47;27.33;96473.24;1640126;87;21485;-65
2022/07/18 08:54:32;;;;;;;3.67;1.10;;;;;;;24.58;26.80;96473.00;1642754;87;21054;-65
2022/07/18 08:56:59;;;;;;;2.25;1.00;;;;;;;24.51;26.10;96482.42;1640307;87;21026;-65
2022/07/18 08:59:26;;;;;;;1.72;1.05;;;;;;;24.45;26.65;96483.25;1640186;87;21002;-65
2022/07/18 09:01:52;;;;;;;1.80;1.00;;;;;;;24.50;26.79;96481.18;1642819;87;21058;-65
2022/07/18 09:04:38;;;;;;;1.85;1.07;;;;;;;24.71;27.26;96475.82;1625740;88;21085;-65
2022/07/18 09:07:08;;;;;;;3.80;1.20;;;;;;;24.83;26.83;96479.61;1639879;87;21469;-65
2022/07/18 09:09:38;;;;;;;1.42;0.85;;;;;;;24.96;26.35;96467.57;1642736;87;21058;-65
2022/07/18 09:12:09;;;;;;;2.25;1.00;;;;;;;24.58;26.05;96471.65;1625859;88;21062;-65
2022/07/18 09:14:42;;;;;;;2.42;1.02;;;;;;;24.77;26.41;96470.52;1640121;87;21521;-65
2022/07/18 09:17:20;;;;;;;1.65;1.00;;;;;;;24.76;26.07;96471.50;1643309;87;21544;-65
2022/07/18 09:20:15;;;;;;;1.82;0.98;;;;;;;24.94;27.12;96464.09;1639820;87;21107;-65
2022/07/18 09:22:44;;;;;;;1.87;1.00;;;;;;;24.88;26.06;96468.05;1639821;87;21070;-65
2022/07/18 09:25:20;;;;;;;4.03;1.10;;;;;;;25.01;26.39;96458.70;1642558;87;21061;-65
2022/07/18 09:27:50;;;;;;;2.10;1.00;;;;;;;25.18;25.45;96468.49;1639980;87;21552;-65
2022/07/18 09:30:35;;;;;;;8.38;1.47;;;;;;;25.15;25.37;96461.41;1640143;87;21107;-65
2022/07/18 09:33:08;;;;;;;4.58;1.07;;;;;;;25.34;26.11;96462.48;1643005;87;21094;-65
2022/07/18 09:35:44;;;;;;;5.80;1.00;;;;;;;25.33;24.88;96456.71;1625387;88;21106;-65
2022/07/18 09:38:14;;;;;;;2.45;1.10;;;;;;;25.28;25.58;96453.92;1637822;86;21505;-65
2022/07/18 09:40:48;;;;;;;0.90;0.90;;;;;;;25.38;24.73;96466.74;1644819;87;21046;-65
2022/07/18 09:43:18;;;;;;;3.25;1.05;;;;;;;25.52;24.65;96463.63;1637381;88;21539;-65
2022/07/18 09:45:49;;;;;;;2.40;1.02;;;;;;;25.38;24.44;96457.28;1637798;88;21477;-65
2022/07/18 09:48:21;;;;;;;3.10;1.20;;;;;;;25.63;24.70;96460.62;1644605;87;21061;-65
2022/07/18 09:51:03;;;;;;;1.90;0.90;;;;;;;25.96;25.37;96453.15;1637028;88;21097;-65
2022/07/18 09:53:34;;;;;;;6.17;1.05;;;;;;;26.22;23.85;96445.98;1636209;87;21082;-65
2022/07/18 09:56:07;;;;;;;2.65;1.10;;;;;;;26.40;23.61;96443.38;1610171;88;21086;-65
2022/07/18 09:58:39;;;;;;;1.67;1.07;;;;;;;26.51;23.94;96449.39;1637760;88;21533;-65
2022/07/18 10:01:08;;;;;;;0.93;0.88;;;;;;;26.41;23.18;96447.83;1645090;87;21057;-65
2022/07/18 10:03:36;;;;;;;3.60;1.17;;;;;;;26.51;22.73;96443.52;1637588;87;21070;-65
2022/07/18 10:06:04;;;;;;;1.37;1.00;;;;;;;26.63;23.87;96440.95;1637418;88;21091;-65
2022/07/18 10:08:33;;;;;;;3.25;0.93;;;;;;;26.82;23.37;96436.50;1645062;87;21061;-65
2022/07/18 10:11:02;;;;;;;4.20;0.80;;;;;;;26.96;22.50;96430.95;1637221;88;21031;-65
2022/07/18 10:13:31;;;;;;;3.33;1.20;;;;;;;27.10;21.58;96437.62;1637681;87;21540;-65
2022/07/18 10:15:58;;;;;;;2.30;0.90;;;;;;;27.23;20.66;96438.13;1644929;87;21038;-65
2022/07/18 10:18:29;;;;;;;1.62;1.22;;;;;;;27.43;21.11;96433.49;1637509;88;21083;-65
2022/07/18 10:21:10;;;;;;;2.25;0.80;;;;;;;27.32;18.83;96434.77;1637622;87;21050;-65
2022/07/18 10:23:44;;;;;;;2.27;1.00;;;;;;;27.34;20.17;96439.11;1610218;88;21039;-65
2022/07/18 10:26:26;;;;;;;2.42;0.70;;;;;;;27.53;20.59;96434.55;1637593;88;21042;-65
2022/07/18 10:29:04;;;;;;;3.33;0.93;;;;;;;27.54;19.40;96432.70;1610404;89;21079;-65
2022/07/18 10:31:34;;;;;;;2.98;1.20;;;;;;;27.62;20.49;96439.31;1637522;88;21027;-65
2022/07/18 10:34:11;;;;;;;5.12;1.10;;;;;;;27.75;20.28;96431.14;1644978;87;21088;-65
2022/07/18 10:36:42;;;;;;;1.20;1.00;;;;;;;27.92;20.74;96431.74;1610295;89;21077;-65
2022/07/18 10:39:21;;;;;;;1.15;0.90;;;;;;;28.10;20.67;96431.74;1637776;88;21102;-65
2022/07/18 10:41:57;;;;;;;1.98;0.98;;;;;;;28.01;20.81;96427.00;1610410;89;21018;-65
2022/07/18 10:44:29;;;;;;;2.65;1.10;;;;;;;28.09;20.93;96435.41;1637780;88;21094;-65
2022/07/18 10:47:17;;;;;;;1.27;0.90;;;;;;;28.21;20.97;96419.56;1645185;87;21026;-65
2022/07/18 10:49:59;;;;;;;1.17;1.07;;;;;;;28.16;20.86;96427.20;1610190;89;21091;-65
2022/07/18 10:52:35;;;;;;;2.20;0.95;;;;;;;27.96;19.64;96427.34;1637720;88;21118;-65
2022/07/18 10:55:08;;;;;;;1.40;1.10;;;;;;;27.78;20.57;96424.13;1645005;87;21058;-65
2022/07/18 10:57:38;;;;;;;1.87;0.90;;;;;;;27.87;20.21;96421.73;1637988;87;21066;-65
2022/07/18 11:00:19;;;;;;;4.33;1.10;;;;;;;27.90;20.33;96416.10;1637824;87;21059;-65
2022/07/18 11:02:50;;;;;;;2.10;1.10;;;;;;;27.90;20.81;96413.39;1609497;89;21568;-65
2022/07/18 11:05:31;;;;;;;2.37;1.10;;;;;;;27.98;21.32;96413.17;1637580;88;21054;-65
2022/07/18 11:08:17;;;;;;;1.40;1.00;;;;;;;28.22;20.94;96406.86;1644808;87;21109;-65
2022/07/18 11:10:54;;;;;;;3.40;0.93;;;;;;;28.41;21.16;96407.19;1637185;87;21146;-65
2022/07/18 11:13:36;;;;;;;1.90;1.10;;;;;;;28.59;21.36;96395.92;1637494;87;21135;-65
2022/07/18 11:16:14;;;;;;;3.85;1.75;;;;;;;28.83;21.04;96398.58;1610434;89;21039;-65
2022/07/18 11:18:47;;;;;;;3.08;1.10;;;;;;;29.02;20.09;96393.88;1637188;87;21110;-65
2022/07/18 11:21:19;;;;;;;1.07;0.98;;;;;;;28.97;20.15;96394.75;1645006;87;21093;-65
2022/07/18 11:23:55;;;;;;;3.22;1.15;;;;;;;28.71;19.99;96389.53;1637951;87;21078;-65
2022/07/18 11:26:24;;;;;;;4.67;1.00;;;;;;;28.72;20.08;96396.68;1633344;87;21543;-65
2022/07/18 11:29:00;;;;;;;2.05;0.80;;;;;;;28.67;20.20;96387.53;1644808;87;21093;-66
2022/07/18 11:31:29;;;;;;;2.52;1.10;;;;;;;28.72;20.13;96393.11;1637773;87;21559;-65
2022/07/18 11:34:01;;;;;;;2.45;1.20;;;;;;;28.88;20.29;96390.92;1637800;88;21504;-65
2022/07/18 11:36:31;;;;;;;1.25;1.10;;;;;;;29.05;20.47;96388.20;1610539;89;21004;-65
2022/07/18 11:39:02;;;;;;;5.62;0.98;;;;;;;29.11;20.24;96385.05;1635261;87;21031;-65
2022/07/18 11:41:29;;;;;;;1.70;0.98;;;;;;;29.29;19.93;96382.19;1637657;88;21118;-65
2022/07/18 11:43:56;;;;;;;1.92;1.00;;;;;;;29.40;19.64;96376.37;1635305;88;21545;-65
2022/07/18 11:46:26;;;;;;;1.52;1.10;;;;;;;29.47;19.58;96380.31;1635283;87;21090;-65
2022/07/18 11:49:05;;;;;;;1.55;0.88;;;;;;;29.53;18.93;96385.24;1637762;87;20994;-65